createdAt,value
2018-02-16T00:00:00.002Z,207.80
2018-02-16T00:01:00.027Z,164.80
2018-02-16T00:01:59.998Z,233.50
2018-02-16T00:03:00.007Z,242.20
2018-02-16T00:04:00.019Z,188.20
2018-02-16T00:05:21.023Z,164.90
2018-02-16T00:05:59.997Z,141.50
2018-02-16T00:07:00.013Z,97.70
2018-02-16T00:07:59.989Z,140.20
2018-02-16T00:08:59.990Z,139.20
2018-02-16T00:09:59.990Z,251.20
2018-02-16T00:11:20.991Z,117.00
2018-02-16T00:12:00.120Z,164.00
2018-02-16T00:13:00.007Z,168.60
2018-02-16T00:13:59.990Z,291.80
2018-02-16T00:14:59.983Z,255.60
2018-02-16T00:15:59.985Z,113.60
2018-02-16T00:17:20.980Z,260.90
2018-02-16T00:17:59.976Z,243.80
2018-02-16T00:18:59.993Z,252.50
2018-02-16T00:19:59.979Z,424.80
2018-02-16T00:20:59.969Z,187.50
2018-02-16T00:21:59.964Z,292.10
2018-02-16T00:23:20.980Z,271.20
2018-02-16T00:23:59.982Z,152.60
2018-02-16T00:24:59.996Z,202.40
2018-02-16T00:25:59.961Z,268.90
2018-02-16T00:26:59.957Z,198.30
2018-02-16T00:27:59.988Z,294.50
2018-02-16T00:29:21.095Z,290.20
2018-02-16T00:29:59.951Z,184.50
2018-02-16T00:30:59.951Z,354.20
2018-02-16T00:31:59.948Z,222.20
2018-02-16T00:33:00.044Z,172.30
2018-02-16T00:33:59.972Z,219.20
2018-02-16T00:35:20.952Z,382.10
2018-02-16T00:35:59.957Z,302.90
2018-02-16T00:36:59.947Z,201.40
2018-02-16T00:38:00.831Z,441.70
2018-02-16T00:38:59.954Z,314.00
2018-02-16T00:39:59.941Z,164.60
2018-02-16T00:41:20.949Z,265.00
2018-02-16T00:41:59.953Z,307.40
2018-02-16T00:42:59.930Z,341.20
2018-02-16T00:43:59.948Z,317.40
2018-02-16T00:44:59.930Z,286.90
2018-02-16T00:45:59.929Z,253.40
2018-02-16T00:47:20.940Z,440.50
2018-02-16T00:47:59.920Z,187.70
2018-02-16T00:48:59.919Z,184.10
2018-02-16T00:49:59.925Z,234.10
2018-02-16T00:50:59.917Z,223.70
2018-02-16T00:51:59.925Z,130.40
2018-02-16T00:53:20.925Z,432.20
2018-02-16T00:53:59.939Z,131.30
2018-02-16T00:54:59.899Z,218.90
2018-02-16T00:55:59.899Z,154.40
2018-02-16T00:56:59.904Z,180.90
2018-02-16T00:57:59.906Z,265.90
2018-02-16T00:59:20.915Z,197.00
2018-02-16T00:59:59.908Z,169.80
2018-02-16T01:00:59.893Z,153.80
2018-02-16T01:01:59.891Z,220.20
2018-02-16T01:02:59.892Z,157.30
2018-02-16T01:03:59.897Z,114.40
2018-02-16T01:05:20.909Z,327.30
2018-02-16T01:05:59.885Z,134.10
2018-02-16T01:06:59.887Z,241.70
2018-02-16T01:07:59.883Z,129.30
2018-02-16T01:08:59.919Z,270.90
2018-02-16T01:09:59.887Z,264.60
2018-02-16T01:11:20.890Z,273.70
2018-02-16T01:11:59.951Z,165.70
2018-02-16T01:12:59.872Z,289.00
2018-02-16T01:13:59.870Z,371.50
2018-02-16T01:14:59.867Z,139.80
2018-02-16T01:15:59.879Z,120.30
2018-02-16T01:17:20.877Z,210.40
2018-02-16T01:17:59.870Z,115.50
2018-02-16T01:18:59.858Z,105.20
2018-02-16T01:19:59.855Z,100.00
2018-02-16T01:20:59.869Z,89.70
2018-02-16T01:21:59.868Z,97.30
2018-02-16T01:23:20.856Z,128.50
2018-02-16T01:23:59.865Z,151.10
2018-02-16T01:24:59.957Z,67.80
2018-02-16T01:25:59.852Z,98.60
2018-02-16T01:26:59.847Z,101.70
2018-02-16T01:27:59.851Z,96.80
2018-02-16T01:29:20.874Z,88.40
2018-02-16T01:29:59.848Z,126.20
2018-02-16T01:30:59.843Z,170.80
2018-02-16T01:31:59.837Z,90.40
2018-02-16T01:32:59.834Z,100.20
2018-02-16T01:33:59.926Z,169.90
2018-02-16T01:35:20.846Z,109.80
2018-02-16T01:35:59.833Z,81.70
2018-02-16T01:36:59.849Z,90.50
2018-02-16T01:37:59.873Z,63.00
2018-02-16T01:38:59.814Z,66.10
2018-02-16T01:39:59.819Z,113.90
2018-02-16T01:41:20.809Z,71.00
2018-02-16T01:41:59.820Z,80.10
2018-02-16T01:42:59.826Z,75.30
2018-02-16T01:43:59.811Z,57.20
2018-02-16T01:44:59.800Z,58.30
2018-02-16T01:45:59.831Z,108.90
2018-02-16T01:47:20.923Z,56.50
2018-02-16T01:47:59.803Z,83.10
2018-02-16T01:48:59.797Z,65.40
2018-02-16T01:49:59.804Z,69.20
2018-02-16T01:50:59.795Z,60.70
2018-02-16T01:51:59.786Z,45.90
2018-02-16T01:53:20.798Z,46.70
2018-02-16T01:53:59.796Z,55.00
2018-02-16T01:54:59.792Z,56.10
2018-02-16T01:55:59.829Z,51.90
2018-02-16T01:56:59.780Z,63.40
2018-02-16T01:57:59.787Z,46.70
2018-02-16T01:59:20.787Z,49.00
2018-02-16T01:59:59.771Z,61.80
2018-02-16T02:00:59.773Z,55.10
2018-02-16T02:01:59.769Z,65.30
2018-02-16T02:02:59.768Z,59.50
2018-02-16T02:03:59.761Z,63.50
2018-02-16T02:05:20.777Z,70.90
2018-02-16T02:05:59.761Z,99.90
2018-02-16T02:06:59.752Z,95.80
2018-02-16T02:07:59.765Z,104.80
2018-02-16T02:08:59.762Z,57.80
2018-02-16T02:09:59.766Z,74.00
2018-02-16T02:11:20.770Z,125.50
2018-02-16T02:11:59.750Z,65.10
2018-02-16T02:12:59.746Z,189.00
2018-02-16T02:13:59.729Z,98.30
2018-02-16T02:14:59.733Z,82.20
2018-02-16T02:15:59.739Z,95.10
2018-02-16T02:17:20.735Z,97.90
2018-02-16T02:17:59.811Z,58.20
2018-02-16T02:18:59.724Z,216.90
2018-02-16T02:19:59.727Z,107.30
2018-02-16T02:20:59.739Z,95.50
2018-02-16T02:21:59.807Z,90.80
2018-02-16T02:23:20.723Z,94.20
2018-02-16T02:23:59.727Z,107.90
2018-02-16T02:24:59.723Z,86.20
2018-02-16T02:25:59.714Z,75.60
2018-02-16T02:26:59.709Z,98.70
2018-02-16T02:27:59.705Z,95.00
2018-02-16T02:29:20.716Z,101.10
2018-02-16T02:29:59.709Z,103.60
2018-02-16T02:30:59.783Z,72.90
2018-02-16T02:31:59.709Z,129.50
2018-02-16T02:32:59.698Z,86.90
2018-02-16T02:33:59.688Z,139.40
2018-02-16T02:35:20.801Z,63.00
2018-02-16T02:35:59.684Z,110.30
2018-02-16T02:36:59.698Z,111.80
2018-02-16T02:37:59.679Z,79.70
2018-02-16T02:38:59.694Z,52.50
2018-02-16T02:39:59.714Z,74.20
2018-02-16T02:41:20.679Z,64.60
2018-02-16T02:41:59.671Z,68.50
2018-02-16T02:42:59.685Z,69.60
2018-02-16T02:43:59.671Z,80.40
2018-02-16T02:44:59.679Z,62.90
2018-02-16T02:45:59.666Z,66.00
2018-02-16T02:47:20.669Z,62.10
2018-02-16T02:47:59.666Z,67.20
2018-02-16T02:48:59.657Z,67.20
2018-02-16T02:49:59.671Z,48.00
2018-02-16T02:50:59.669Z,47.80
2018-02-16T02:51:59.661Z,49.50
2018-02-16T02:53:20.653Z,47.60
2018-02-16T02:53:59.654Z,47.90
2018-02-16T02:54:59.641Z,56.90
2018-02-16T02:55:59.647Z,76.10
2018-02-16T02:56:59.633Z,50.30
2018-02-16T02:57:59.638Z,56.70
2018-02-16T02:59:20.667Z,58.40
2018-02-16T02:59:59.628Z,64.00
2018-02-16T03:00:59.632Z,65.10
2018-02-16T03:01:59.629Z,63.00
2018-02-16T03:02:59.623Z,57.00
2018-02-16T03:03:59.627Z,68.30
2018-02-16T03:05:20.626Z,58.60
2018-02-16T03:05:59.617Z,77.30
2018-02-16T03:06:59.621Z,67.30
2018-02-16T03:07:59.615Z,74.40
2018-02-16T03:08:59.615Z,65.10
2018-02-16T03:09:59.615Z,67.70
2018-02-16T03:11:20.607Z,57.70
2018-02-16T03:11:59.613Z,66.10
2018-02-16T03:12:59.597Z,76.40
2018-02-16T03:13:59.661Z,60.70
2018-02-16T03:14:59.629Z,58.90
2018-02-16T03:15:59.684Z,65.10
2018-02-16T03:17:20.605Z,56.80
2018-02-16T03:17:59.589Z,66.50
2018-02-16T03:18:59.613Z,72.70
2018-02-16T03:19:59.593Z,67.00
2018-02-16T03:20:59.590Z,66.70
2018-02-16T03:21:59.578Z,61.20
2018-02-16T03:23:20.590Z,63.70
2018-02-16T03:23:59.585Z,69.20
2018-02-16T03:24:59.591Z,72.10
2018-02-16T03:25:59.565Z,65.20
2018-02-16T03:26:59.569Z,70.30
2018-02-16T03:27:59.612Z,58.30
2018-02-16T03:29:20.568Z,62.20
2018-02-16T03:29:59.558Z,64.40
2018-02-16T03:30:59.551Z,60.10
2018-02-16T03:31:59.555Z,64.60
2018-02-16T03:32:59.545Z,61.70
2018-02-16T03:33:59.566Z,61.50
2018-02-16T03:35:20.560Z,70.50
2018-02-16T03:35:59.635Z,64.10
2018-02-16T03:36:59.550Z,58.60
2018-02-16T03:37:59.525Z,52.50
2018-02-16T03:38:59.542Z,60.20
2018-02-16T03:39:59.531Z,55.80
2018-02-16T03:41:20.563Z,54.20
2018-02-16T03:41:59.524Z,53.50
2018-02-16T03:42:59.523Z,69.90
2018-02-16T03:43:59.520Z,58.40
2018-02-16T03:44:59.514Z,58.10
2018-02-16T03:45:59.520Z,59.70
2018-02-16T03:47:20.531Z,55.20
2018-02-16T03:47:59.534Z,51.20
2018-02-16T03:48:59.509Z,52.00
2018-02-16T03:49:59.520Z,60.90
2018-02-16T03:50:59.543Z,53.10
2018-02-16T03:51:59.517Z,45.60
2018-02-16T03:53:20.514Z,49.60
2018-02-16T03:53:59.500Z,51.40
2018-02-16T03:54:59.503Z,45.90
2018-02-16T03:55:59.493Z,45.10
2018-02-16T03:56:59.482Z,47.70
2018-02-16T03:57:59.495Z,43.00
2018-02-16T03:59:20.490Z,47.00
2018-02-16T03:59:59.504Z,50.10
2018-02-16T04:00:59.477Z,49.00
2018-02-16T04:01:59.466Z,42.20
2018-02-16T04:02:59.475Z,43.50
2018-02-16T04:03:59.477Z,40.90
2018-02-16T04:05:20.472Z,48.10
2018-02-16T04:05:59.463Z,48.20
2018-02-16T04:06:59.449Z,38.80
2018-02-16T04:07:59.448Z,41.40
2018-02-16T04:08:59.447Z,50.60
2018-02-16T04:09:59.469Z,49.30
2018-02-16T04:11:20.456Z,52.80
2018-02-16T04:11:59.472Z,57.20
2018-02-16T04:12:59.437Z,49.30
2018-02-16T04:13:59.441Z,46.50
2018-02-16T04:14:59.435Z,48.20
2018-02-16T04:15:59.453Z,43.10
2018-02-16T04:17:20.442Z,47.10
2018-02-16T04:17:59.431Z,44.90
2018-02-16T04:18:59.425Z,50.30
2018-02-16T04:19:59.440Z,42.00
2018-02-16T04:20:59.419Z,50.20
2018-02-16T04:21:59.432Z,49.00
2018-02-16T04:23:20.418Z,48.30
2018-02-16T04:23:59.435Z,48.90
2018-02-16T04:24:59.404Z,49.00
2018-02-16T04:25:59.467Z,57.60
2018-02-16T04:26:59.411Z,53.10
2018-02-16T04:27:59.405Z,54.30
2018-02-16T04:29:20.412Z,50.40
2018-02-16T04:29:59.408Z,50.60
2018-02-16T04:30:59.386Z,52.90
2018-02-16T04:31:59.419Z,51.90
2018-02-16T04:32:59.390Z,49.20
2018-02-16T04:33:59.537Z,44.20
2018-02-16T04:35:20.492Z,51.80
2018-02-16T04:35:59.384Z,44.50
2018-02-16T04:36:59.486Z,46.00
2018-02-16T04:37:59.382Z,45.50
2018-02-16T04:38:59.370Z,45.70
2018-02-16T04:39:59.373Z,45.70
2018-02-16T04:41:20.427Z,43.70
2018-02-16T04:41:59.362Z,41.40
2018-02-16T04:42:59.362Z,48.10
2018-02-16T04:43:59.361Z,49.70
2018-02-16T04:44:59.405Z,42.60
2018-02-16T04:45:59.358Z,46.30
2018-02-16T04:47:20.344Z,44.80
2018-02-16T04:47:59.352Z,43.90
2018-02-16T04:48:59.338Z,52.50
2018-02-16T04:49:59.875Z,53.00
2018-02-16T04:50:59.342Z,57.20
2018-02-16T04:51:59.365Z,47.40
2018-02-16T04:53:20.340Z,48.50
2018-02-16T04:53:59.326Z,42.90
2018-02-16T04:54:59.332Z,43.10
2018-02-16T04:55:59.326Z,40.00
2018-02-16T04:56:59.317Z,46.80
2018-02-16T04:57:59.327Z,42.60
2018-02-16T04:59:20.334Z,43.50
2018-02-16T04:59:59.325Z,41.30
2018-02-16T05:00:59.302Z,45.50
2018-02-16T05:01:59.314Z,41.90
2018-02-16T05:02:59.300Z,46.20
2018-02-16T05:03:59.320Z,49.50
2018-02-16T05:05:20.315Z,46.50
2018-02-16T05:05:59.318Z,44.10
2018-02-16T05:06:59.304Z,45.90
2018-02-16T05:07:59.287Z,47.40
2018-02-16T05:08:59.286Z,49.50
2018-02-16T05:09:59.278Z,47.20
2018-02-16T05:11:20.293Z,46.30
2018-02-16T05:11:59.291Z,49.20
2018-02-16T05:12:59.386Z,49.90
2018-02-16T05:13:59.277Z,47.40
2018-02-16T05:14:59.278Z,47.80
2018-02-16T05:15:59.275Z,50.50
2018-02-16T05:17:20.293Z,44.70
2018-02-16T05:17:59.262Z,50.70
2018-02-16T05:18:59.274Z,49.90
2018-02-16T05:19:59.249Z,47.20
2018-02-16T05:20:59.248Z,47.20
2018-02-16T05:21:59.256Z,47.10
2018-02-16T05:23:20.263Z,51.30
2018-02-16T05:23:59.243Z,49.00
2018-02-16T05:24:59.229Z,49.90
2018-02-16T05:25:59.241Z,45.70
2018-02-16T05:26:59.263Z,47.40
2018-02-16T05:27:59.241Z,46.50
2018-02-16T05:29:20.225Z,46.10
2018-02-16T05:29:59.738Z,45.40
2018-02-16T05:30:59.483Z,42.90
2018-02-16T05:31:59.233Z,48.20
2018-02-16T05:32:59.217Z,54.20
2018-02-16T05:33:59.336Z,50.20
2018-02-16T05:35:20.218Z,52.50
2018-02-16T05:35:59.246Z,50.70
2018-02-16T05:36:59.207Z,46.40
2018-02-16T05:37:59.306Z,49.10
2018-02-16T05:38:59.214Z,49.40
2018-02-16T05:39:59.204Z,53.40
2018-02-16T05:41:20.208Z,48.00
2018-02-16T05:41:59.190Z,51.50
2018-02-16T05:42:59.198Z,48.30
2018-02-16T05:43:59.674Z,43.10
2018-02-16T05:44:59.195Z,47.30
2018-02-16T05:45:59.177Z,47.60
2018-02-16T05:47:20.191Z,45.30
2018-02-16T05:47:59.184Z,47.40
2018-02-16T05:48:59.169Z,47.70
2018-02-16T05:49:59.172Z,48.00
2018-02-16T05:50:59.168Z,46.80
2018-02-16T05:51:59.160Z,49.90
2018-02-16T05:53:20.176Z,49.40
2018-02-16T05:53:59.272Z,52.30
2018-02-16T05:54:59.155Z,49.90
2018-02-16T05:55:59.153Z,49.00
2018-02-16T05:56:59.147Z,46.20
2018-02-16T05:57:59.151Z,51.70
2018-02-16T05:59:20.168Z,49.30
2018-02-16T05:59:59.886Z,45.00
2018-02-16T06:00:59.151Z,45.60
2018-02-16T06:01:59.132Z,55.90
2018-02-16T06:02:59.403Z,57.40
2018-02-16T06:03:59.134Z,55.50
2018-02-16T06:05:20.141Z,51.60
2018-02-16T06:05:59.124Z,48.60
2018-02-16T06:06:59.225Z,56.90
2018-02-16T06:07:59.125Z,56.80
2018-02-16T06:08:59.115Z,48.10
2018-02-16T06:09:59.110Z,50.30
2018-02-16T06:11:20.125Z,54.20
2018-02-16T06:11:59.138Z,51.80
2018-02-16T06:12:59.117Z,50.30
2018-02-16T06:13:59.097Z,52.60
2018-02-16T06:14:59.118Z,46.30
2018-02-16T06:15:59.136Z,43.70
2018-02-16T06:17:20.090Z,52.00
2018-02-16T06:17:59.131Z,47.20
2018-02-16T06:18:59.188Z,47.50
2018-02-16T06:19:59.084Z,48.20
2018-02-16T06:20:59.133Z,46.80
2018-02-16T06:21:59.718Z,42.10
2018-02-16T06:23:20.086Z,47.90
2018-02-16T06:23:59.077Z,50.80
2018-02-16T06:24:59.072Z,52.50
2018-02-16T06:25:59.086Z,46.60
2018-02-16T06:26:59.530Z,53.70
2018-02-16T06:27:59.060Z,48.20
2018-02-16T06:29:20.082Z,42.80
2018-02-16T06:29:59.057Z,48.90
2018-02-16T06:30:59.120Z,58.00
2018-02-16T06:31:59.068Z,48.80
2018-02-16T06:32:59.066Z,42.40
2018-02-16T06:33:59.239Z,46.20
2018-02-16T06:35:20.057Z,48.30
2018-02-16T06:35:59.054Z,51.70
2018-02-16T06:36:59.038Z,49.40
2018-02-16T06:37:59.024Z,51.80
2018-02-16T06:38:59.243Z,59.00
2018-02-16T06:39:59.156Z,49.50
2018-02-16T06:41:20.045Z,62.80
2018-02-16T06:41:59.025Z,55.80
2018-02-16T06:42:59.031Z,51.40
2018-02-16T06:43:59.022Z,56.40
2018-02-16T06:44:59.010Z,61.10
2018-02-16T06:45:59.040Z,55.10
2018-02-16T06:47:20.890Z,57.60
2018-02-16T06:47:59.034Z,60.10
2018-02-16T06:48:59.031Z,62.10
2018-02-16T06:49:59.886Z,61.90
2018-02-16T06:50:58.994Z,61.00
2018-02-16T06:51:58.994Z,61.80
2018-02-16T06:53:20.003Z,51.00
2018-02-16T06:53:58.982Z,56.90
2018-02-16T06:54:58.990Z,49.50
2018-02-16T06:55:59.491Z,47.50
2018-02-16T06:56:58.988Z,51.50
2018-02-16T06:57:58.973Z,48.30
2018-02-16T06:59:19.986Z,61.00
2018-02-16T06:59:59.134Z,52.90
2018-02-16T07:00:58.975Z,51.80
2018-02-16T07:01:58.972Z,47.00
2018-02-16T07:02:58.969Z,55.00
2018-02-16T07:03:58.963Z,59.70
2018-02-16T07:05:19.983Z,60.80
2018-02-16T07:05:59.004Z,59.30
2018-02-16T07:06:58.954Z,52.80
2018-02-16T07:07:58.971Z,59.30
2018-02-16T07:08:58.958Z,54.20
2018-02-16T07:09:58.949Z,56.10
2018-02-16T07:11:19.956Z,49.20
2018-02-16T07:11:58.941Z,51.80
2018-02-16T07:12:58.939Z,51.80
2018-02-16T07:13:58.935Z,50.50
2018-02-16T07:14:58.935Z,50.80
2018-02-16T07:15:58.942Z,52.70
2018-02-16T07:17:19.940Z,49.80
2018-02-16T07:17:58.930Z,51.30
2018-02-16T07:18:58.927Z,49.90
2018-02-16T07:19:58.925Z,51.50
2018-02-16T07:20:58.939Z,49.90
2018-02-16T07:21:58.920Z,52.60
2018-02-16T07:23:19.929Z,53.60
2018-02-16T07:23:58.928Z,43.40
2018-02-16T07:24:58.907Z,45.80
2018-02-16T07:25:58.916Z,51.30
2018-02-16T07:26:58.906Z,54.70
2018-02-16T07:27:58.901Z,46.60
2018-02-16T07:29:19.922Z,49.20
2018-02-16T07:29:58.905Z,53.20
2018-02-16T07:30:58.942Z,50.70
2018-02-16T07:31:58.911Z,43.30
2018-02-16T07:32:58.917Z,48.50
2018-02-16T07:33:58.933Z,51.40
2018-02-16T07:35:19.884Z,47.20
2018-02-16T07:35:58.878Z,44.00
2018-02-16T07:36:59.007Z,44.60
2018-02-16T07:37:58.938Z,39.50
2018-02-16T07:38:59.383Z,43.20
2018-02-16T07:39:58.902Z,50.70
2018-02-16T07:41:19.925Z,44.80
2018-02-16T07:41:58.866Z,45.10
2018-02-16T07:42:58.869Z,46.70
2018-02-16T07:43:58.853Z,42.50
2018-02-16T07:44:58.859Z,45.70
2018-02-16T07:45:58.886Z,41.90
2018-02-16T07:47:19.877Z,44.50
2018-02-16T07:47:58.858Z,43.00
2018-02-16T07:48:58.848Z,38.50
2018-02-16T07:49:58.916Z,41.30
2018-02-16T07:50:58.840Z,39.90
2018-02-16T07:51:58.855Z,42.30
2018-02-16T07:53:19.858Z,44.00
2018-02-16T07:53:58.858Z,39.90
2018-02-16T07:54:58.842Z,36.50
2018-02-16T07:55:58.849Z,35.10
2018-02-16T07:56:58.838Z,42.40
2018-02-16T07:57:58.845Z,37.80
2018-02-16T07:59:19.908Z,37.80
2018-02-16T07:59:58.845Z,31.80
2018-02-16T08:00:58.890Z,35.00
2018-02-16T08:01:58.858Z,33.00
2018-02-16T08:02:58.824Z,30.40
2018-02-16T08:03:58.868Z,27.80
2018-02-16T08:05:19.877Z,32.40
2018-02-16T08:05:58.873Z,33.60
2018-02-16T08:06:58.864Z,31.50
2018-02-16T08:07:58.932Z,33.20
2018-02-16T08:08:58.866Z,35.20
2018-02-16T08:09:58.907Z,30.20
2018-02-16T08:11:19.842Z,31.20
2018-02-16T08:11:58.850Z,30.00
2018-02-16T08:13:00.350Z,32.60
2018-02-16T08:13:58.911Z,36.40
2018-02-16T08:14:58.839Z,30.60
2018-02-16T08:15:58.823Z,31.20
2018-02-16T08:17:19.844Z,29.30
2018-02-16T08:17:58.840Z,27.30
2018-02-16T08:18:58.847Z,29.90
2018-02-16T08:19:58.855Z,27.20
2018-02-16T08:20:58.995Z,27.30
2018-02-16T08:21:58.845Z,28.40
2018-02-16T08:23:19.850Z,33.10
2018-02-16T08:23:58.899Z,29.00
2018-02-16T08:24:58.843Z,31.30
2018-02-16T08:25:58.868Z,32.40
2018-02-16T08:26:58.853Z,29.60
2018-02-16T08:27:58.921Z,30.10
2018-02-16T08:29:19.936Z,27.40
2018-02-16T08:29:58.839Z,27.60
2018-02-16T08:31:00.595Z,27.20
2018-02-16T08:31:59.867Z,28.40
2018-02-16T08:33:00.358Z,24.60
2018-02-16T08:33:59.128Z,24.20
2018-02-16T08:35:21.667Z,28.20
2018-02-16T08:36:20.671Z,23.10
2018-02-16T08:37:02.932Z,21.60
2018-02-16T08:37:59.429Z,24.50
2018-02-16T08:38:59.369Z,26.40
2018-02-16T08:40:20.905Z,27.20
2018-02-16T08:41:02.486Z,24.50
2018-02-16T08:41:59.585Z,24.70
2018-02-16T08:43:00.474Z,26.60
2018-02-16T08:43:59.251Z,22.30
2018-02-16T08:46:50.762Z,24.80
2018-02-16T08:47:36.516Z,26.00
2018-02-16T08:48:37.827Z,25.60
2018-02-16T08:49:35.714Z,24.70
2018-02-16T08:50:35.720Z,25.10
2018-02-16T08:51:36.167Z,25.00
2018-02-16T08:52:35.750Z,28.20
2018-02-16T08:53:36.526Z,24.90
2018-02-16T08:54:37.269Z,26.80
2018-02-16T08:55:36.108Z,24.00
2018-02-16T08:56:37.020Z,26.10
2018-02-16T08:57:37.325Z,25.70
2018-02-16T08:58:36.844Z,25.50
2018-02-16T08:59:47.397Z,26.20
2018-02-16T09:00:36.940Z,24.60
2018-02-16T09:01:35.961Z,22.30
2018-02-16T09:02:36.009Z,20.00
2018-02-16T09:03:35.762Z,24.00
2018-02-16T09:04:36.430Z,21.40
2018-02-16T09:05:36.761Z,21.80
2018-02-16T09:06:38.577Z,26.70
2018-02-16T09:07:35.493Z,25.80
2018-02-16T09:08:35.602Z,23.00
2018-02-16T09:09:38.444Z,21.80
2018-02-16T09:10:36.019Z,23.70
2018-02-16T09:11:35.721Z,22.50
2018-02-16T09:12:36.986Z,24.30
2018-02-16T09:13:38.076Z,23.70
2018-02-16T09:14:51.097Z,23.20
2018-02-16T09:15:35.636Z,22.10
2018-02-16T09:16:47.796Z,25.80
2018-02-16T09:17:35.889Z,22.00
2018-02-16T09:18:37.720Z,24.00
2018-02-16T09:19:36.638Z,25.10
2018-02-16T09:20:38.075Z,21.80
2018-02-16T09:21:37.895Z,25.10
2018-02-16T09:22:39.909Z,24.20
2018-02-16T09:23:36.361Z,22.80
2018-02-16T09:24:36.678Z,20.40
2018-02-16T09:25:37.812Z,25.90
2018-02-16T09:27:40.218Z,21.90
2018-02-16T09:28:37.326Z,26.60
2018-02-16T09:29:38.078Z,26.90
2018-02-16T09:30:35.702Z,22.30
2018-02-16T09:31:40.244Z,22.80
2018-02-16T09:32:36.489Z,24.90
2018-02-16T09:33:57.133Z,21.10
2018-02-16T09:34:35.627Z,22.20
2018-02-16T09:35:35.834Z,21.80
2018-02-16T09:36:36.186Z,21.20
2018-02-16T09:37:35.645Z,22.40
2018-02-16T09:38:35.687Z,20.60
2018-02-16T09:39:56.684Z,26.70
2018-02-16T09:40:35.859Z,22.70
2018-02-16T09:41:37.313Z,20.00
2018-02-16T09:42:36.812Z,22.50
2018-02-16T09:43:37.157Z,22.10
2018-02-16T09:44:35.706Z,27.20
2018-02-16T09:45:56.720Z,20.90
2018-02-16T09:46:35.702Z,22.80
2018-02-16T09:47:36.220Z,21.50
2018-02-16T09:48:35.705Z,20.00
2018-02-16T09:49:36.725Z,21.80
2018-02-16T09:50:35.817Z,20.00
2018-02-16T09:51:57.359Z,25.60
2018-02-16T09:52:35.729Z,24.40
2018-02-16T09:53:36.668Z,25.40
2018-02-16T09:54:35.743Z,21.60
2018-02-16T09:55:36.070Z,21.30
2018-02-16T09:56:35.737Z,22.20
2018-02-16T09:57:56.903Z,25.40
2018-02-16T09:58:36.336Z,25.70
2018-02-16T09:59:35.827Z,28.00
2018-02-16T10:00:35.767Z,24.80
2018-02-16T10:01:35.848Z,22.20
2018-02-16T10:02:35.851Z,25.30
2018-02-16T10:03:57.942Z,25.00
2018-02-16T10:04:35.771Z,28.00
2018-02-16T10:05:35.753Z,29.40
2018-02-16T10:06:35.884Z,23.60
2018-02-16T10:07:35.892Z,21.30
2018-02-16T10:08:36.966Z,23.20
2018-02-16T10:09:56.832Z,22.50
2018-02-16T10:10:35.811Z,24.10
2018-02-16T10:11:35.821Z,25.60
2018-02-16T10:12:35.846Z,25.00
2018-02-16T10:13:35.824Z,24.80
2018-02-16T10:14:35.923Z,24.30
2018-02-16T10:15:57.161Z,24.40
2018-02-16T10:16:35.949Z,26.70
2018-02-16T10:17:35.853Z,26.90
2018-02-16T10:18:35.836Z,26.90
2018-02-16T10:19:36.169Z,25.20
2018-02-16T10:20:35.837Z,26.90
2018-02-16T10:21:57.264Z,27.00
2018-02-16T10:22:35.833Z,23.50
2018-02-16T10:23:36.788Z,25.30
2018-02-16T10:24:35.845Z,23.90
2018-02-16T10:25:35.872Z,25.10
2018-02-16T10:26:36.858Z,25.00
2018-02-16T10:27:56.909Z,24.40
2018-02-16T10:28:35.928Z,23.50
2018-02-16T10:29:35.881Z,24.40
2018-02-16T10:30:37.790Z,25.20
2018-02-16T10:31:35.890Z,26.30
2018-02-16T10:32:35.891Z,22.20
2018-02-16T10:33:57.704Z,21.80
2018-02-16T10:34:35.889Z,29.20
2018-02-16T10:35:35.891Z,23.20
2018-02-16T10:36:35.940Z,25.40
2018-02-16T10:37:35.884Z,26.50
2018-02-16T10:38:36.748Z,24.60
2018-02-16T10:39:56.936Z,25.80
2018-02-16T10:40:36.730Z,23.00
2018-02-16T10:41:36.029Z,23.90
2018-02-16T10:42:36.031Z,25.80
2018-02-16T10:43:35.951Z,21.80
2018-02-16T10:44:35.987Z,25.00
2018-02-16T10:45:57.774Z,23.50
2018-02-16T10:46:35.984Z,21.70
2018-02-16T10:47:35.927Z,22.50
2018-02-16T10:48:35.928Z,25.50
2018-02-16T10:49:35.931Z,22.40
2018-02-16T10:50:35.943Z,23.60
2018-02-16T10:51:59.050Z,23.90
2018-02-16T10:52:35.976Z,21.30
2018-02-16T10:53:39.019Z,19.90
2018-02-16T10:54:36.858Z,23.90
2018-02-16T10:55:36.470Z,22.30
2018-02-16T10:56:36.084Z,19.50
2018-02-16T10:57:57.706Z,19.80
2018-02-16T10:58:36.844Z,20.40
2018-02-16T10:59:35.990Z,19.30
2018-02-16T11:00:36.094Z,20.40
2018-02-16T11:01:36.812Z,21.60
2018-02-16T11:02:35.980Z,20.80
2018-02-16T11:03:56.996Z,22.30
2018-02-16T11:04:36.409Z,19.20
2018-02-16T11:05:36.027Z,19.90
2018-02-16T11:06:36.753Z,20.60
2018-02-16T11:07:36.029Z,20.30
2018-02-16T11:08:36.758Z,23.40
2018-02-16T11:09:57.183Z,22.00
2018-02-16T11:10:36.711Z,20.20
2018-02-16T11:11:36.075Z,16.80
2018-02-16T11:12:36.030Z,19.60
2018-02-16T11:13:36.804Z,20.50
2018-02-16T11:14:36.148Z,20.50
2018-02-16T11:15:57.058Z,18.50
2018-02-16T11:16:36.078Z,21.80
2018-02-16T11:17:36.095Z,19.30
2018-02-16T11:18:36.052Z,19.60
2018-02-16T11:19:36.371Z,15.10
2018-02-16T11:20:36.183Z,17.00
2018-02-16T11:21:57.093Z,22.20
2018-02-16T11:22:36.494Z,19.80
2018-02-16T11:23:36.089Z,17.40
2018-02-16T11:24:36.093Z,18.40
2018-02-16T11:25:36.760Z,20.40
2018-02-16T11:26:36.268Z,18.90
2018-02-16T11:27:57.989Z,19.40
2018-02-16T11:28:36.133Z,16.40
2018-02-16T11:29:36.211Z,20.00
2018-02-16T11:30:36.243Z,21.50
2018-02-16T11:31:36.144Z,19.20
2018-02-16T11:32:36.141Z,19.20
2018-02-16T11:33:57.457Z,16.70
2018-02-16T11:34:36.296Z,21.10
2018-02-16T11:35:36.137Z,19.90
2018-02-16T11:36:36.158Z,24.70
2018-02-16T11:37:36.143Z,17.60
2018-02-16T11:38:36.253Z,17.30
2018-02-16T11:39:57.776Z,19.50
2018-02-16T11:40:36.172Z,19.60
2018-02-16T11:41:37.216Z,16.00
2018-02-16T11:42:36.172Z,15.90
2018-02-16T11:43:36.200Z,15.20
2018-02-16T11:44:36.246Z,13.50
2018-02-16T11:45:57.251Z,13.90
2018-02-16T11:46:36.215Z,15.60
2018-02-16T11:47:36.281Z,16.70
2018-02-16T11:48:36.793Z,16.00
2018-02-16T11:49:36.225Z,15.20
2018-02-16T11:50:36.264Z,14.90
2018-02-16T11:51:57.241Z,16.20
2018-02-16T11:52:36.554Z,16.50
2018-02-16T11:53:36.261Z,14.20
2018-02-16T11:54:36.234Z,15.60
2018-02-16T11:55:36.255Z,14.30
2018-02-16T11:56:36.247Z,17.40
2018-02-16T11:57:57.448Z,13.00
2018-02-16T11:58:36.317Z,14.10
2018-02-16T11:59:36.406Z,13.20
2018-02-16T12:00:36.271Z,16.20
2018-02-16T12:01:36.404Z,15.00
2018-02-16T12:02:36.286Z,18.90
2018-02-16T12:03:57.314Z,16.50
2018-02-16T12:04:36.330Z,16.90
2018-02-16T12:05:36.315Z,18.90
2018-02-16T12:06:36.339Z,14.90
2018-02-16T12:07:36.426Z,14.10
2018-02-16T12:08:58.864Z,18.30
2018-02-16T12:09:57.362Z,14.90
2018-02-16T12:10:36.385Z,14.30
2018-02-16T12:11:36.369Z,18.90
2018-02-16T12:12:36.367Z,14.80
2018-02-16T12:13:36.406Z,17.00
2018-02-16T12:14:36.387Z,17.60
2018-02-16T12:15:57.397Z,14.50
2018-02-16T12:16:36.416Z,21.10
2018-02-16T12:17:36.409Z,15.00
2018-02-16T12:18:37.701Z,14.30
2018-02-16T12:19:36.538Z,17.20
2018-02-16T12:20:36.432Z,16.00
2018-02-16T12:21:57.453Z,17.90
2018-02-16T12:22:36.448Z,18.10
2018-02-16T12:23:36.509Z,135.50
2018-02-16T12:24:40.565Z,21.90
2018-02-16T12:25:36.773Z,16.60
2018-02-16T12:26:37.054Z,16.90
2018-02-16T12:27:57.680Z,15.90
2018-02-16T12:28:36.941Z,19.10
2018-02-16T12:29:36.870Z,19.40
2018-02-16T12:30:36.506Z,21.00
2018-02-16T12:31:36.684Z,18.00
2018-02-16T12:32:36.660Z,20.80
2018-02-16T12:33:58.256Z,15.90
2018-02-16T12:34:36.610Z,17.20
2018-02-16T12:35:36.492Z,19.10
2018-02-16T12:36:36.495Z,16.30
2018-02-16T12:37:36.500Z,16.90
2018-02-16T12:38:36.513Z,18.00
2018-02-16T12:39:58.633Z,18.50
2018-02-16T12:40:36.764Z,16.60
2018-02-16T12:41:36.582Z,16.00
2018-02-16T12:42:37.285Z,16.70
2018-02-16T12:43:36.496Z,18.20
2018-02-16T12:44:36.495Z,16.20
2018-02-16T12:45:57.530Z,20.90
2018-02-16T12:46:36.518Z,17.20
2018-02-16T12:47:36.503Z,18.40
2018-02-16T12:48:36.526Z,19.30
2018-02-16T12:49:36.519Z,15.80
2018-02-16T12:50:36.552Z,18.10
2018-02-16T12:51:57.617Z,17.60